sensor_id;sensor_type;location;lat;lon;timestamp;P1;durP1;ratioP1;P2;durP2;ratioP2
39882;SDS011;55824;52.220;21.040;2023-04-24T00:00:01;6.10;;;4.60;;
39882;SDS011;55824;52.220;21.040;2023-04-24T00:02:30;4.97;;;3.75;;
39882;SDS011;55824;52.220;21.040;2023-04-24T00:04:56;6.05;;;4.93;;
39882;SDS011;55824;52.220;21.040;2023-04-24T00:07:27;6.22;;;4.32;;
39882;SDS011;55824;52.220;21.040;2023-04-24T00:09:53;6.22;;;4.13;;
39882;SDS011;55824;52.220;21.040;2023-04-24T00:12:19;6.60;;;4.45;;
39882;SDS011;55824;52.220;21.040;2023-04-24T00:14:45;8.05;;;4.57;;
39882;SDS011;55824;52.220;21.040;2023-04-24T00:17:11;6.75;;;4.43;;
39882;SDS011;55824;52.220;21.040;2023-04-24T00:19:37;7.70;;;4.18;;
39882;SDS011;55824;52.220;21.040;2023-04-24T00:22:03;8.43;;;4.68;;
39882;SDS011;55824;52.220;21.040;2023-04-24T00:24:30;7.72;;;4.95;;
39882;SDS011;55824;52.220;21.040;2023-04-24T00:26:56;6.85;;;4.50;;
39882;SDS011;55824;52.220;21.040;2023-04-24T00:29:22;5.38;;;4.30;;
39882;SDS011;55824;52.220;21.040;2023-04-24T00:31:48;6.40;;;4.30;;
39882;SDS011;55824;52.220;21.040;2023-04-24T00:34:14;8.50;;;4.70;;
39882;SDS011;55824;52.220;21.040;2023-04-24T00:36:40;7.57;;;4.53;;
39882;SDS011;55824;52.220;21.040;2023-04-24T00:39:06;7.13;;;4.70;;
39882;SDS011;55824;52.220;21.040;2023-04-24T00:41:35;6.18;;;4.93;;
39882;SDS011;55824;52.220;21.040;2023-04-24T00:44:01;6.03;;;5.05;;
39882;SDS011;55824;52.220;21.040;2023-04-24T00:46:27;6.60;;;4.60;;
39882;SDS011;55824;52.220;21.040;2023-04-24T00:48:53;7.25;;;4.57;;
39882;SDS011;55824;52.220;21.040;2023-04-24T00:51:19;6.80;;;4.30;;
39882;SDS011;55824;52.220;21.040;2023-04-24T00:53:46;6.15;;;4.38;;
39882;SDS011;55824;52.220;21.040;2023-04-24T00:56:12;6.75;;;4.63;;
39882;SDS011;55824;52.220;21.040;2023-04-24T00:58:38;6.60;;;4.63;;
39882;SDS011;55824;52.220;21.040;2023-04-24T01:01:04;9.27;;;4.80;;
39882;SDS011;55824;52.220;21.040;2023-04-24T01:03:32;8.43;;;5.15;;
39882;SDS011;55824;52.220;21.040;2023-04-24T01:05:58;6.85;;;4.32;;
39882;SDS011;55824;52.220;21.040;2023-04-24T01:08:24;6.95;;;5.10;;
39882;SDS011;55824;52.220;21.040;2023-04-24T01:10:52;8.60;;;5.20;;
39882;SDS011;55824;52.220;21.040;2023-04-24T01:13:18;6.90;;;4.93;;
39882;SDS011;55824;52.220;21.040;2023-04-24T01:15:45;6.90;;;5.22;;
39882;SDS011;55824;52.220;21.040;2023-04-24T01:18:11;6.95;;;4.95;;
39882;SDS011;55824;52.220;21.040;2023-04-24T01:20:38;8.13;;;5.00;;
39882;SDS011;55824;52.220;21.040;2023-04-24T01:23:05;6.03;;;4.63;;
39882;SDS011;55824;52.220;21.040;2023-04-24T01:25:31;7.32;;;4.80;;
39882;SDS011;55824;52.220;21.040;2023-04-24T01:27:58;5.63;;;4.75;;
39882;SDS011;55824;52.220;21.040;2023-04-24T01:30:24;6.47;;;5.05;;
39882;SDS011;55824;52.220;21.040;2023-04-24T01:32:51;7.10;;;5.20;;
39882;SDS011;55824;52.220;21.040;2023-04-24T01:35:17;5.55;;;4.85;;
39882;SDS011;55824;52.220;21.040;2023-04-24T01:37:43;7.95;;;4.70;;
39882;SDS011;55824;52.220;21.040;2023-04-24T01:40:10;7.50;;;5.28;;
39882;SDS011;55824;52.220;21.040;2023-04-24T01:42:36;8.48;;;5.40;;
39882;SDS011;55824;52.220;21.040;2023-04-24T01:45:03;7.57;;;4.85;;
39882;SDS011;55824;52.220;21.040;2023-04-24T01:47:30;5.60;;;4.65;;
39882;SDS011;55824;52.220;21.040;2023-04-24T01:49:56;8.40;;;5.47;;
39882;SDS011;55824;52.220;21.040;2023-04-24T01:52:22;6.47;;;4.82;;
39882;SDS011;55824;52.220;21.040;2023-04-24T01:54:48;7.32;;;5.20;;
39882;SDS011;55824;52.220;21.040;2023-04-24T01:57:14;6.05;;;4.55;;
39882;SDS011;55824;52.220;21.040;2023-04-24T01:59:42;7.22;;;5.20;;
39882;SDS011;55824;52.220;21.040;2023-04-24T02:02:08;8.05;;;5.45;;
39882;SDS011;55824;52.220;21.040;2023-04-24T02:04:34;6.93;;;4.80;;
39882;SDS011;55824;52.220;21.040;2023-04-24T02:07:00;6.10;;;4.55;;
39882;SDS011;55824;52.220;21.040;2023-04-24T02:09:26;6.15;;;4.82;;
39882;SDS011;55824;52.220;21.040;2023-04-24T02:11:52;6.65;;;4.70;;
39882;SDS011;55824;52.220;21.040;2023-04-24T02:14:18;6.68;;;4.80;;
39882;SDS011;55824;52.220;21.040;2023-04-24T02:16:44;6.47;;;5.00;;
39882;SDS011;55824;52.220;21.040;2023-04-24T02:19:10;5.80;;;4.28;;
39882;SDS011;55824;52.220;21.040;2023-04-24T02:21:36;7.63;;;5.18;;
39882;SDS011;55824;52.220;21.040;2023-04-24T02:24:02;9.10;;;5.15;;
39882;SDS011;55824;52.220;21.040;2023-04-24T02:26:28;6.60;;;4.90;;
39882;SDS011;55824;52.220;21.040;2023-04-24T02:28:56;6.00;;;4.30;;
39882;SDS011;55824;52.220;21.040;2023-04-24T02:31:22;7.72;;;4.97;;
39882;SDS011;55824;52.220;21.040;2023-04-24T02:33:48;7.15;;;4.82;;
39882;SDS011;55824;52.220;21.040;2023-04-24T02:36:14;8.00;;;4.90;;
39882;SDS011;55824;52.220;21.040;2023-04-24T02:38:40;6.97;;;5.10;;
39882;SDS011;55824;52.220;21.040;2023-04-24T02:41:06;7.20;;;4.65;;
39882;SDS011;55824;52.220;21.040;2023-04-24T02:43:32;6.72;;;4.85;;
39882;SDS011;55824;52.220;21.040;2023-04-24T02:45:58;7.88;;;4.78;;
39882;SDS011;55824;52.220;21.040;2023-04-24T02:48:24;7.43;;;4.93;;
39882;SDS011;55824;52.220;21.040;2023-04-24T02:50:50;6.72;;;4.90;;
39882;SDS011;55824;52.220;21.040;2023-04-24T02:53:16;8.35;;;5.07;;
39882;SDS011;55824;52.220;21.040;2023-04-24T02:55:42;7.50;;;5.15;;
39882;SDS011;55824;52.220;21.040;2023-04-24T02:58:08;7.63;;;4.88;;
39882;SDS011;55824;52.220;21.040;2023-04-24T03:00:35;11.15;;;5.53;;
39882;SDS011;55824;52.220;21.040;2023-04-24T03:03:01;7.85;;;5.30;;
39882;SDS011;55824;52.220;21.040;2023-04-24T03:05:27;7.65;;;5.53;;
39882;SDS011;55824;52.220;21.040;2023-04-24T03:07:53;7.20;;;5.38;;
39882;SDS011;55824;52.220;21.040;2023-04-24T03:10:19;8.35;;;5.55;;
39882;SDS011;55824;52.220;21.040;2023-04-24T03:12:47;9.05;;;5.57;;
39882;SDS011;55824;52.220;21.040;2023-04-24T03:15:13;9.45;;;5.03;;
39882;SDS011;55824;52.220;21.040;2023-04-24T03:17:39;7.20;;;5.15;;
39882;SDS011;55824;52.220;21.040;2023-04-24T03:20:06;8.63;;;5.18;;
39882;SDS011;55824;52.220;21.040;2023-04-24T03:22:33;7.40;;;4.80;;
39882;SDS011;55824;52.220;21.040;2023-04-24T03:24:59;7.55;;;5.10;;
39882;SDS011;55824;52.220;21.040;2023-04-24T03:27:25;7.45;;;4.95;;
39882;SDS011;55824;52.220;21.040;2023-04-24T03:29:51;8.57;;;5.40;;
39882;SDS011;55824;52.220;21.040;2023-04-24T03:32:20;7.50;;;5.15;;
39882;SDS011;55824;52.220;21.040;2023-04-24T03:34:46;7.78;;;5.13;;
39882;SDS011;55824;52.220;21.040;2023-04-24T03:37:12;6.95;;;4.57;;
39882;SDS011;55824;52.220;21.040;2023-04-24T03:39:38;7.22;;;5.43;;
39882;SDS011;55824;52.220;21.040;2023-04-24T03:42:04;6.47;;;4.82;;
39882;SDS011;55824;52.220;21.040;2023-04-24T03:44:30;8.73;;;5.88;;
39882;SDS011;55824;52.220;21.040;2023-04-24T03:46:57;6.38;;;5.00;;
39882;SDS011;55824;52.220;21.040;2023-04-24T03:49:23;7.60;;;5.68;;
39882;SDS011;55824;52.220;21.040;2023-04-24T03:51:49;8.38;;;5.72;;
39882;SDS011;55824;52.220;21.040;2023-04-24T03:54:15;6.68;;;5.30;;
39882;SDS011;55824;52.220;21.040;2023-04-24T03:56:42;8.63;;;5.43;;
39882;SDS011;55824;52.220;21.040;2023-04-24T03:59:08;7.13;;;5.32;;
39882;SDS011;55824;52.220;21.040;2023-04-24T04:01:34;7.95;;;5.47;;
39882;SDS011;55824;52.220;21.040;2023-04-24T04:04:02;7.82;;;5.25;;
39882;SDS011;55824;52.220;21.040;2023-04-24T04:06:28;6.65;;;5.00;;
39882;SDS011;55824;52.220;21.040;2023-04-24T04:08:55;8.10;;;5.30;;
39882;SDS011;55824;52.220;21.040;2023-04-24T04:11:21;7.03;;;5.40;;
39882;SDS011;55824;52.220;21.040;2023-04-24T04:13:47;12.38;;;5.75;;
39882;SDS011;55824;52.220;21.040;2023-04-24T04:16:14;8.93;;;6.00;;
39882;SDS011;55824;52.220;21.040;2023-04-24T04:18:41;8.52;;;5.72;;
39882;SDS011;55824;52.220;21.040;2023-04-24T04:21:07;9.60;;;5.32;;
39882;SDS011;55824;52.220;21.040;2023-04-24T04:23:33;8.30;;;5.78;;
39882;SDS011;55824;52.220;21.040;2023-04-24T04:25:59;9.00;;;5.80;;
39882;SDS011;55824;52.220;21.040;2023-04-24T04:28:26;9.85;;;5.47;;
39882;SDS011;55824;52.220;21.040;2023-04-24T04:30:52;8.25;;;5.90;;
39882;SDS011;55824;52.220;21.040;2023-04-24T04:33:22;11.50;;;5.80;;
39882;SDS011;55824;52.220;21.040;2023-04-24T04:35:48;8.57;;;5.70;;
39882;SDS011;55824;52.220;21.040;2023-04-24T04:38:15;8.02;;;5.25;;
39882;SDS011;55824;52.220;21.040;2023-04-24T04:40:42;10.18;;;5.53;;
39882;SDS011;55824;52.220;21.040;2023-04-24T04:43:07;8.98;;;6.13;;
39882;SDS011;55824;52.220;21.040;2023-04-24T04:45:35;8.10;;;5.60;;
39882;SDS011;55824;52.220;21.040;2023-04-24T04:48:02;9.05;;;5.95;;
39882;SDS011;55824;52.220;21.040;2023-04-24T04:50:28;9.18;;;5.82;;
39882;SDS011;55824;52.220;21.040;2023-04-24T04:52:54;7.53;;;5.35;;
39882;SDS011;55824;52.220;21.040;2023-04-24T04:55:20;7.20;;;5.53;;
39882;SDS011;55824;52.220;21.040;2023-04-24T04:57:46;8.90;;;5.88;;
39882;SDS011;55824;52.220;21.040;2023-04-24T05:00:13;7.70;;;5.50;;
39882;SDS011;55824;52.220;21.040;2023-04-24T05:02:39;11.02;;;5.72;;
39882;SDS011;55824;52.220;21.040;2023-04-24T05:05:05;7.38;;;5.28;;
39882;SDS011;55824;52.220;21.040;2023-04-24T05:07:32;10.30;;;6.05;;
39882;SDS011;55824;52.220;21.040;2023-04-24T05:09:58;10.98;;;5.90;;
39882;SDS011;55824;52.220;21.040;2023-04-24T05:12:24;9.88;;;6.43;;
39882;SDS011;55824;52.220;21.040;2023-04-24T05:14:50;10.07;;;6.07;;
39882;SDS011;55824;52.220;21.040;2023-04-24T05:17:16;13.35;;;6.10;;
39882;SDS011;55824;52.220;21.040;2023-04-24T05:19:42;9.18;;;6.00;;
39882;SDS011;55824;52.220;21.040;2023-04-24T05:22:08;14.00;;;6.22;;
39882;SDS011;55824;52.220;21.040;2023-04-24T05:24:35;13.73;;;6.65;;
39882;SDS011;55824;52.220;21.040;2023-04-24T05:27:02;11.13;;;6.32;;
39882;SDS011;55824;52.220;21.040;2023-04-24T05:29:29;10.98;;;6.38;;
39882;SDS011;55824;52.220;21.040;2023-04-24T05:31:56;8.23;;;5.40;;
39882;SDS011;55824;52.220;21.040;2023-04-24T05:34:22;9.82;;;5.82;;
39882;SDS011;55824;52.220;21.040;2023-04-24T05:36:48;10.52;;;5.15;;
39882;SDS011;55824;52.220;21.040;2023-04-24T05:39:15;13.30;;;6.50;;
39882;SDS011;55824;52.220;21.040;2023-04-24T05:41:41;14.90;;;6.93;;
39882;SDS011;55824;52.220;21.040;2023-04-24T05:44:07;13.07;;;6.22;;
39882;SDS011;55824;52.220;21.040;2023-04-24T05:46:33;10.32;;;6.70;;
39882;SDS011;55824;52.220;21.040;2023-04-24T05:48:59;14.90;;;7.03;;
39882;SDS011;55824;52.220;21.040;2023-04-24T05:51:25;12.52;;;6.75;;
39882;SDS011;55824;52.220;21.040;2023-04-24T05:53:51;9.38;;;6.78;;
39882;SDS011;55824;52.220;21.040;2023-04-24T05:56:17;10.25;;;6.00;;
39882;SDS011;55824;52.220;21.040;2023-04-24T05:58:44;16.23;;;6.63;;
39882;SDS011;55824;52.220;21.040;2023-04-24T06:01:11;9.18;;;6.80;;
39882;SDS011;55824;52.220;21.040;2023-04-24T06:03:38;13.00;;;7.10;;
39882;SDS011;55824;52.220;21.040;2023-04-24T06:06:05;11.45;;;5.63;;
39882;SDS011;55824;52.220;21.040;2023-04-24T06:08:31;23.77;;;6.65;;
39882;SDS011;55824;52.220;21.040;2023-04-24T06:10:58;14.05;;;6.53;;
39882;SDS011;55824;52.220;21.040;2023-04-24T06:13:24;16.58;;;6.45;;
39882;SDS011;55824;52.220;21.040;2023-04-24T06:15:51;12.60;;;6.85;;
39882;SDS011;55824;52.220;21.040;2023-04-24T06:18:17;11.48;;;6.45;;
39882;SDS011;55824;52.220;21.040;2023-04-24T06:20:43;10.57;;;7.47;;
39882;SDS011;55824;52.220;21.040;2023-04-24T06:23:09;15.38;;;6.75;;
39882;SDS011;55824;52.220;21.040;2023-04-24T06:25:34;12.73;;;6.50;;
39882;SDS011;55824;52.220;21.040;2023-04-24T06:28:00;10.40;;;6.18;;
39882;SDS011;55824;52.220;21.040;2023-04-24T06:30:27;11.70;;;6.35;;
39882;SDS011;55824;52.220;21.040;2023-04-24T06:32:53;9.75;;;6.15;;
39882;SDS011;55824;52.220;21.040;2023-04-24T06:35:19;10.55;;;5.53;;
39882;SDS011;55824;52.220;21.040;2023-04-24T06:37:45;11.30;;;6.35;;
39882;SDS011;55824;52.220;21.040;2023-04-24T06:40:11;12.32;;;6.45;;
39882;SDS011;55824;52.220;21.040;2023-04-24T06:42:37;11.50;;;6.22;;
39882;SDS011;55824;52.220;21.040;2023-04-24T06:45:03;10.27;;;5.97;;
39882;SDS011;55824;52.220;21.040;2023-04-24T06:47:30;13.80;;;6.32;;
39882;SDS011;55824;52.220;21.040;2023-04-24T06:49:56;11.38;;;6.00;;
39882;SDS011;55824;52.220;21.040;2023-04-24T06:52:22;15.25;;;6.40;;
39882;SDS011;55824;52.220;21.040;2023-04-24T06:54:48;9.45;;;5.78;;
39882;SDS011;55824;52.220;21.040;2023-04-24T06:57:14;11.68;;;6.00;;
39882;SDS011;55824;52.220;21.040;2023-04-24T06:59:41;9.18;;;5.68;;
39882;SDS011;55824;52.220;21.040;2023-04-24T07:02:07;12.23;;;5.80;;
39882;SDS011;55824;52.220;21.040;2023-04-24T07:04:33;11.75;;;5.82;;
39882;SDS011;55824;52.220;21.040;2023-04-24T07:06:59;11.25;;;5.47;;
39882;SDS011;55824;52.220;21.040;2023-04-24T07:09:25;10.38;;;5.60;;
39882;SDS011;55824;52.220;21.040;2023-04-24T07:11:52;7.40;;;5.10;;
39882;SDS011;55824;52.220;21.040;2023-04-24T07:14:18;11.00;;;5.30;;
39882;SDS011;55824;52.220;21.040;2023-04-24T07:16:45;9.55;;;5.53;;
39882;SDS011;55824;52.220;21.040;2023-04-24T07:19:12;10.23;;;5.35;;
39882;SDS011;55824;52.220;21.040;2023-04-24T07:21:38;8.18;;;5.45;;
39882;SDS011;55824;52.220;21.040;2023-04-24T07:24:04;9.40;;;5.57;;
39882;SDS011;55824;52.220;21.040;2023-04-24T07:26:34;9.70;;;5.32;;
39882;SDS011;55824;52.220;21.040;2023-04-24T07:29:00;8.30;;;5.13;;
39882;SDS011;55824;52.220;21.040;2023-04-24T07:31:26;7.93;;;5.70;;
39882;SDS011;55824;52.220;21.040;2023-04-24T07:33:52;8.75;;;5.38;;
39882;SDS011;55824;52.220;21.040;2023-04-24T07:36:18;8.90;;;5.72;;
39882;SDS011;55824;52.220;21.040;2023-04-24T07:38:45;10.05;;;5.97;;
39882;SDS011;55824;52.220;21.040;2023-04-24T07:41:12;11.05;;;5.55;;
39882;SDS011;55824;52.220;21.040;2023-04-24T07:43:38;7.90;;;5.07;;
39882;SDS011;55824;52.220;21.040;2023-04-24T07:46:04;9.45;;;5.38;;
39882;SDS011;55824;52.220;21.040;2023-04-24T07:48:30;12.07;;;5.40;;
39882;SDS011;55824;52.220;21.040;2023-04-24T07:50:56;8.73;;;5.65;;
39882;SDS011;55824;52.220;21.040;2023-04-24T07:53:22;7.13;;;5.03;;
39882;SDS011;55824;52.220;21.040;2023-04-24T07:55:48;6.78;;;5.60;;
39882;SDS011;55824;52.220;21.040;2023-04-24T07:58:14;8.10;;;5.55;;
39882;SDS011;55824;52.220;21.040;2023-04-24T08:00:40;12.93;;;5.15;;
39882;SDS011;55824;52.220;21.040;2023-04-24T08:03:06;11.23;;;5.38;;
39882;SDS011;55824;52.220;21.040;2023-04-24T08:05:32;7.63;;;5.15;;
39882;SDS011;55824;52.220;21.040;2023-04-24T08:07:58;8.48;;;5.55;;
39882;SDS011;55824;52.220;21.040;2023-04-24T08:10:24;9.45;;;5.68;;
39882;SDS011;55824;52.220;21.040;2023-04-24T08:12:50;9.52;;;5.50;;
39882;SDS011;55824;52.220;21.040;2023-04-24T08:15:16;7.53;;;4.97;;
39882;SDS011;55824;52.220;21.040;2023-04-24T08:17:43;8.00;;;5.20;;
39882;SDS011;55824;52.220;21.040;2023-04-24T08:20:10;9.65;;;5.30;;
39882;SDS011;55824;52.220;21.040;2023-04-24T08:22:42;7.05;;;5.40;;
39882;SDS011;55824;52.220;21.040;2023-04-24T08:25:09;6.15;;;4.78;;
39882;SDS011;55824;52.220;21.040;2023-04-24T08:27:35;6.88;;;5.25;;
39882;SDS011;55824;52.220;21.040;2023-04-24T08:30:02;8.00;;;5.78;;
39882;SDS011;55824;52.220;21.040;2023-04-24T08:32:28;8.80;;;5.63;;
39882;SDS011;55824;52.220;21.040;2023-04-24T08:34:57;10.35;;;5.22;;
39882;SDS011;55824;52.220;21.040;2023-04-24T08:37:23;8.68;;;5.35;;
39882;SDS011;55824;52.220;21.040;2023-04-24T08:39:50;11.32;;;4.82;;
39882;SDS011;55824;52.220;21.040;2023-04-24T08:42:16;8.85;;;5.53;;
39882;SDS011;55824;52.220;21.040;2023-04-24T08:44:43;8.32;;;5.05;;
39882;SDS011;55824;52.220;21.040;2023-04-24T08:47:09;8.05;;;4.80;;
39882;SDS011;55824;52.220;21.040;2023-04-24T08:49:36;6.35;;;4.88;;
39882;SDS011;55824;52.220;21.040;2023-04-24T08:52:02;7.53;;;4.82;;
39882;SDS011;55824;52.220;21.040;2023-04-24T08:54:28;7.50;;;5.30;;
39882;SDS011;55824;52.220;21.040;2023-04-24T08:56:57;7.03;;;4.90;;
39882;SDS011;55824;52.220;21.040;2023-04-24T08:59:26;7.80;;;4.97;;
39882;SDS011;55824;52.220;21.040;2023-04-24T09:01:52;7.90;;;5.13;;
39882;SDS011;55824;52.220;21.040;2023-04-24T09:04:18;8.07;;;5.15;;
39882;SDS011;55824;52.220;21.040;2023-04-24T09:06:47;7.68;;;5.10;;
39882;SDS011;55824;52.220;21.040;2023-04-24T09:09:13;7.97;;;5.03;;
39882;SDS011;55824;52.220;21.040;2023-04-24T09:11:41;6.57;;;4.82;;
39882;SDS011;55824;52.220;21.040;2023-04-24T09:14:07;7.75;;;5.47;;
39882;SDS011;55824;52.220;21.040;2023-04-24T09:16:35;7.82;;;4.95;;
39882;SDS011;55824;52.220;21.040;2023-04-24T09:19:01;6.47;;;4.88;;
39882;SDS011;55824;52.220;21.040;2023-04-24T09:21:31;10.27;;;5.32;;
39882;SDS011;55824;52.220;21.040;2023-04-24T09:23:58;6.90;;;4.70;;
39882;SDS011;55824;52.220;21.040;2023-04-24T09:26:25;8.60;;;5.25;;
39882;SDS011;55824;52.220;21.040;2023-04-24T09:28:51;7.22;;;5.00;;
39882;SDS011;55824;52.220;21.040;2023-04-24T09:31:19;8.50;;;4.82;;
39882;SDS011;55824;52.220;21.040;2023-04-24T09:33:53;8.90;;;5.20;;
39882;SDS011;55824;52.220;21.040;2023-04-24T09:36:26;6.18;;;4.80;;
39882;SDS011;55824;52.220;21.040;2023-04-24T09:38:53;7.50;;;5.20;;
39882;SDS011;55824;52.220;21.040;2023-04-24T09:41:19;6.00;;;4.53;;
39882;SDS011;55824;52.220;21.040;2023-04-24T09:43:45;6.50;;;4.47;;
39882;SDS011;55824;52.220;21.040;2023-04-24T09:46:11;6.97;;;5.55;;
39882;SDS011;55824;52.220;21.040;2023-04-24T09:48:38;6.60;;;4.72;;
39882;SDS011;55824;52.220;21.040;2023-04-24T09:51:05;7.85;;;4.50;;
39882;SDS011;55824;52.220;21.040;2023-04-24T09:53:36;7.05;;;4.93;;
39882;SDS011;55824;52.220;21.040;2023-04-24T09:56:08;5.90;;;4.45;;
39882;SDS011;55824;52.220;21.040;2023-04-24T09:58:35;5.85;;;4.60;;
39882;SDS011;55824;52.220;21.040;2023-04-24T10:01:01;5.97;;;4.43;;
39882;SDS011;55824;52.220;21.040;2023-04-24T10:03:29;5.90;;;4.60;;
39882;SDS011;55824;52.220;21.040;2023-04-24T10:05:58;6.43;;;4.32;;
39882;SDS011;55824;52.220;21.040;2023-04-24T10:08:24;5.95;;;4.47;;
39882;SDS011;55824;52.220;21.040;2023-04-24T10:10:51;7.78;;;4.20;;
39882;SDS011;55824;52.220;21.040;2023-04-24T10:13:17;10.25;;;5.63;;
39882;SDS011;55824;52.220;21.040;2023-04-24T10:15:44;6.55;;;4.82;;
39882;SDS011;55824;52.220;21.040;2023-04-24T10:18:10;7.55;;;4.65;;
39882;SDS011;55824;52.220;21.040;2023-04-24T10:20:37;7.13;;;4.25;;
39882;SDS011;55824;52.220;21.040;2023-04-24T10:23:03;6.35;;;4.53;;
39882;SDS011;55824;52.220;21.040;2023-04-24T10:25:30;7.53;;;4.70;;
39882;SDS011;55824;52.220;21.040;2023-04-24T10:27:57;7.78;;;4.50;;
39882;SDS011;55824;52.220;21.040;2023-04-24T10:30:24;6.72;;;4.47;;
39882;SDS011;55824;52.220;21.040;2023-04-24T10:32:50;6.30;;;4.22;;
39882;SDS011;55824;52.220;21.040;2023-04-24T10:35:17;8.77;;;4.78;;
39882;SDS011;55824;52.220;21.040;2023-04-24T10:37:51;7.40;;;4.75;;
39882;SDS011;55824;52.220;21.040;2023-04-24T10:40:25;6.18;;;4.72;;
39882;SDS011;55824;52.220;21.040;2023-04-24T10:42:51;7.20;;;4.85;;
39882;SDS011;55824;52.220;21.040;2023-04-24T10:45:21;6.28;;;4.55;;
39882;SDS011;55824;52.220;21.040;2023-04-24T10:48:01;6.65;;;4.80;;
39882;SDS011;55824;52.220;21.040;2023-04-24T10:50:41;6.70;;;4.93;;
39882;SDS011;55824;52.220;21.040;2023-04-24T10:53:14;6.40;;;4.43;;
39882;SDS011;55824;52.220;21.040;2023-04-24T10:55:41;5.90;;;4.68;;
39882;SDS011;55824;52.220;21.040;2023-04-24T10:58:08;6.10;;;4.22;;
39882;SDS011;55824;52.220;21.040;2023-04-24T11:00:36;7.82;;;4.70;;
39882;SDS011;55824;52.220;21.040;2023-04-24T11:03:04;6.07;;;4.63;;
39882;SDS011;55824;52.220;21.040;2023-04-24T11:05:53;7.18;;;4.63;;
39882;SDS011;55824;52.220;21.040;2023-04-24T11:08:24;8.18;;;4.65;;
39882;SDS011;55824;52.220;21.040;2023-04-24T11:10:58;6.45;;;4.60;;
39882;SDS011;55824;52.220;21.040;2023-04-24T11:13:24;7.28;;;4.97;;
39882;SDS011;55824;52.220;21.040;2023-04-24T11:18:38;6.75;;;4.50;;
39882;SDS011;55824;52.220;21.040;2023-04-24T11:21:11;6.50;;;4.32;;
39882;SDS011;55824;52.220;21.040;2023-04-24T11:23:37;6.00;;;3.85;;
39882;SDS011;55824;52.220;21.040;2023-04-24T11:26:10;6.15;;;4.30;;
39882;SDS011;55824;52.220;21.040;2023-04-24T11:28:37;5.93;;;4.35;;
39882;SDS011;55824;52.220;21.040;2023-04-24T11:33:54;6.10;;;4.55;;
39882;SDS011;55824;52.220;21.040;2023-04-24T11:36:20;5.60;;;4.18;;
39882;SDS011;55824;52.220;21.040;2023-04-24T11:38:46;6.32;;;4.75;;
39882;SDS011;55824;52.220;21.040;2023-04-24T11:41:12;6.63;;;4.50;;
39882;SDS011;55824;52.220;21.040;2023-04-24T11:43:39;6.78;;;4.97;;
39882;SDS011;55824;52.220;21.040;2023-04-24T11:46:05;5.43;;;4.05;;
39882;SDS011;55824;52.220;21.040;2023-04-24T11:48:34;6.53;;;4.30;;
39882;SDS011;55824;52.220;21.040;2023-04-24T11:51:01;6.28;;;4.53;;
39882;SDS011;55824;52.220;21.040;2023-04-24T11:53:27;5.95;;;4.45;;
39882;SDS011;55824;52.220;21.040;2023-04-24T11:55:53;5.72;;;4.35;;
39882;SDS011;55824;52.220;21.040;2023-04-24T11:58:22;6.60;;;4.68;;
39882;SDS011;55824;52.220;21.040;2023-04-24T12:00:55;6.57;;;3.75;;
39882;SDS011;55824;52.220;21.040;2023-04-24T12:03:21;6.57;;;4.13;;
39882;SDS011;55824;52.220;21.040;2023-04-24T12:05:47;5.90;;;4.15;;
39882;SDS011;55824;52.220;21.040;2023-04-24T12:08:26;6.57;;;3.78;;
39882;SDS011;55824;52.220;21.040;2023-04-24T12:10:52;5.63;;;4.32;;
39882;SDS011;55824;52.220;21.040;2023-04-24T12:13:18;6.63;;;4.50;;
39882;SDS011;55824;52.220;21.040;2023-04-24T12:15:45;5.95;;;4.10;;
39882;SDS011;55824;52.220;21.040;2023-04-24T12:18:11;6.85;;;4.68;;
39882;SDS011;55824;52.220;21.040;2023-04-24T12:20:40;7.38;;;3.95;;
39882;SDS011;55824;52.220;21.040;2023-04-24T12:23:06;5.97;;;4.20;;
39882;SDS011;55824;52.220;21.040;2023-04-24T12:25:32;6.00;;;4.30;;
39882;SDS011;55824;52.220;21.040;2023-04-24T12:30:31;6.65;;;4.40;;
39882;SDS011;55824;52.220;21.040;2023-04-24T12:32:58;6.95;;;3.85;;
39882;SDS011;55824;52.220;21.040;2023-04-24T12:35:26;8.35;;;4.53;;
39882;SDS011;55824;52.220;21.040;2023-04-24T12:37:52;5.43;;;4.20;;
39882;SDS011;55824;52.220;21.040;2023-04-24T12:40:20;5.55;;;3.92;;
39882;SDS011;55824;52.220;21.040;2023-04-24T12:42:49;5.25;;;3.92;;
39882;SDS011;55824;52.220;21.040;2023-04-24T12:45:16;5.35;;;3.75;;
39882;SDS011;55824;52.220;21.040;2023-04-24T12:47:43;5.85;;;4.20;;
39882;SDS011;55824;52.220;21.040;2023-04-24T12:50:10;7.68;;;3.88;;
39882;SDS011;55824;52.220;21.040;2023-04-24T12:52:36;4.43;;;3.58;;
39882;SDS011;55824;52.220;21.040;2023-04-24T12:55:02;6.75;;;3.80;;
39882;SDS011;55824;52.220;21.040;2023-04-24T12:57:30;9.75;;;3.75;;
39882;SDS011;55824;52.220;21.040;2023-04-24T12:59:59;7.60;;;4.07;;
39882;SDS011;55824;52.220;21.040;2023-04-24T13:02:26;7.18;;;3.33;;
39882;SDS011;55824;52.220;21.040;2023-04-24T13:04:52;8.32;;;4.10;;
39882;SDS011;55824;52.220;21.040;2023-04-24T13:07:19;10.43;;;3.60;;
39882;SDS011;55824;52.220;21.040;2023-04-24T13:09:45;8.20;;;3.45;;
39882;SDS011;55824;52.220;21.040;2023-04-24T13:12:11;5.82;;;3.40;;
39882;SDS011;55824;52.220;21.040;2023-04-24T13:14:37;7.03;;;3.50;;
39882;SDS011;55824;52.220;21.040;2023-04-24T13:17:04;7.93;;;3.20;;
39882;SDS011;55824;52.220;21.040;2023-04-24T13:19:34;7.25;;;3.75;;
39882;SDS011;55824;52.220;21.040;2023-04-24T13:22:00;7.10;;;3.67;;
39882;SDS011;55824;52.220;21.040;2023-04-24T13:24:26;7.47;;;3.45;;
39882;SDS011;55824;52.220;21.040;2023-04-24T13:26:53;5.53;;;3.33;;
39882;SDS011;55824;52.220;21.040;2023-04-24T13:29:19;6.60;;;3.53;;
39882;SDS011;55824;52.220;21.040;2023-04-24T13:31:46;7.80;;;2.88;;
39882;SDS011;55824;52.220;21.040;2023-04-24T13:34:12;5.82;;;3.13;;
39882;SDS011;55824;52.220;21.040;2023-04-24T13:36:38;7.22;;;3.60;;
39882;SDS011;55824;52.220;21.040;2023-04-24T13:39:05;7.50;;;3.28;;
39882;SDS011;55824;52.220;21.040;2023-04-24T13:41:32;7.13;;;3.47;;
39882;SDS011;55824;52.220;21.040;2023-04-24T13:43:58;7.47;;;3.20;;
39882;SDS011;55824;52.220;21.040;2023-04-24T13:46:24;7.85;;;3.33;;
39882;SDS011;55824;52.220;21.040;2023-04-24T13:48:50;5.95;;;3.10;;
39882;SDS011;55824;52.220;21.040;2023-04-24T13:51:17;5.95;;;3.45;;
39882;SDS011;55824;52.220;21.040;2023-04-24T13:53:43;5.40;;;3.00;;
39882;SDS011;55824;52.220;21.040;2023-04-24T13:56:09;5.15;;;3.10;;
39882;SDS011;55824;52.220;21.040;2023-04-24T13:58:37;4.10;;;2.65;;
39882;SDS011;55824;52.220;21.040;2023-04-24T14:01:03;4.15;;;3.05;;
39882;SDS011;55824;52.220;21.040;2023-04-24T14:03:29;4.93;;;3.08;;
39882;SDS011;55824;52.220;21.040;2023-04-24T14:05:55;5.00;;;3.33;;
39882;SDS011;55824;52.220;21.040;2023-04-24T14:08:22;5.25;;;3.10;;
39882;SDS011;55824;52.220;21.040;2023-04-24T14:10:49;6.18;;;3.20;;
39882;SDS011;55824;52.220;21.040;2023-04-24T14:13:16;4.13;;;3.13;;
39882;SDS011;55824;52.220;21.040;2023-04-24T14:15:42;5.40;;;3.22;;
39882;SDS011;55824;52.220;21.040;2023-04-24T14:18:08;5.85;;;2.90;;
39882;SDS011;55824;52.220;21.040;2023-04-24T14:20:34;3.63;;;2.75;;
39882;SDS011;55824;52.220;21.040;2023-04-24T14:23:00;5.63;;;3.15;;
39882;SDS011;55824;52.220;21.040;2023-04-24T14:25:26;4.22;;;2.80;;
39882;SDS011;55824;52.220;21.040;2023-04-24T14:27:52;4.35;;;2.63;;
39882;SDS011;55824;52.220;21.040;2023-04-24T14:30:18;4.28;;;2.75;;
39882;SDS011;55824;52.220;21.040;2023-04-24T14:32:45;3.97;;;3.17;;
39882;SDS011;55824;52.220;21.040;2023-04-24T14:35:12;5.85;;;2.95;;
39882;SDS011;55824;52.220;21.040;2023-04-24T14:37:39;4.43;;;3.05;;